Time;durP1;ratioP1;P1;durP2;ratioP2;P2;SDS_P1;SDS_P2;PMS_P1;PMS_P2;Temp;Humidity;BMP_temperature;BMP_pressure;BME280_temperature;BME280_humidity;BME280_pressure;Samples;Min_cycle;Max_cycle;Signal;HPM_P1;HPM_P2
2022/07/14 00:00:52;;;;;;;5.20;1.20;;;15.80;99.90;;;;;;5076784;28;20052;-65
2022/07/14 00:03:18;;;;;;;5.47;1.00;;;15.80;99.90;;;;;;5076718;28;20056;-65
2022/07/14 00:05:44;;;;;;;4.55;1.02;;;15.80;99.90;;;;;;5076159;28;20054;-66
2022/07/14 00:08:09;;;;;;;6.43;1.48;;;15.80;99.90;;;;;;5076611;28;20033;-65
2022/07/14 00:10:35;;;;;;;5.00;1.17;;;15.90;99.90;;;;;;5076440;28;20098;-65
2022/07/14 00:13:01;;;;;;;6.95;0.90;;;15.90;99.90;;;;;;5076600;28;20080;-65
2022/07/14 00:15:28;;;;;;;5.82;1.20;;;15.80;99.90;;;;;;5076262;28;20052;-65
2022/07/14 00:17:55;;;;;;;6.03;1.13;;;15.90;99.90;;;;;;5076280;28;20036;-65
2022/07/14 00:20:21;;;;;;;5.38;1.48;;;15.90;99.90;;;;;;5076405;28;20049;-65
2022/07/14 00:22:47;;;;;;;6.57;1.10;;;15.90;99.90;;;;;;5075195;28;20041;-65
2022/07/14 00:25:13;;;;;;;3.67;1.02;;;15.80;99.90;;;;;;5076027;28;20500;-65
2022/07/14 00:27:43;;;;;;;7.47;1.17;;;15.80;99.90;;;;;;5076360;28;20109;-65
2022/07/14 00:30:10;;;;;;;5.45;1.13;;;15.90;99.90;;;;;;5076297;28;20048;-65
2022/07/14 00:32:36;;;;;;;5.85;1.20;;;15.80;99.90;;;;;;5075464;28;20056;-65
2022/07/14 00:35:04;;;;;;;6.18;1.15;;;15.70;99.90;;;;;;5075094;28;20047;-65
2022/07/14 00:37:29;;;;;;;6.97;1.33;;;15.70;99.90;;;;;;5075527;28;20054;-66
2022/07/14 00:39:55;;;;;;;5.50;1.38;;;15.70;99.90;;;;;;5075842;28;20092;-65
2022/07/14 00:42:37;;;;;;;6.70;1.30;;;15.70;99.90;;;;;;5076169;28;20051;-65
2022/07/14 00:45:26;;;;;;;5.82;1.50;;;15.60;99.90;;;;;;5076016;28;20048;-65
2022/07/14 00:47:51;;;;;;;6.53;1.38;;;15.70;99.90;;;;;;5075896;28;20051;-65
2022/07/14 00:50:18;;;;;;;7.03;1.45;;;15.60;99.90;;;;;;5075602;28;20127;-65
2022/07/14 00:52:46;;;;;;;5.88;1.15;;;15.60;99.90;;;;;;5075864;28;20044;-65
2022/07/14 00:55:14;;;;;;;10.05;1.55;;;15.60;99.90;;;;;;5075808;28;20106;-66
2022/07/14 00:57:40;;;;;;;7.05;1.52;;;15.50;99.90;;;;;;5074381;28;20088;-66
2022/07/14 01:00:08;;;;;;;7.50;1.45;;;15.50;99.90;;;;;;5075579;28;20098;-65
2022/07/14 01:02:34;;;;;;;4.78;1.33;;;15.50;99.90;;;;;;5075491;28;20570;-65
2022/07/14 01:05:00;;;;;;;8.35;1.63;;;15.50;99.90;;;;;;5074126;28;20045;-65
2022/07/14 01:07:26;;;;;;;7.65;1.75;;;15.50;99.90;;;;;;5074185;28;20492;-65
2022/07/14 01:09:52;;;;;;;8.02;1.40;;;15.50;99.90;;;;;;5075528;28;20123;-65
2022/07/14 01:12:18;;;;;;;6.15;1.40;;;15.40;99.90;;;;;;5075376;28;20484;-65
2022/07/14 01:14:44;;;;;;;6.80;1.30;;;15.40;99.90;;;;;;5075640;28;20091;-65
2022/07/14 01:17:11;;;;;;;3.58;1.30;;;15.40;99.90;;;;;;5074208;28;20060;-65
2022/07/14 01:19:37;;;;;;;7.07;1.35;;;15.50;99.90;;;;;;5075380;28;20042;-65
2022/07/14 01:22:03;;;;;;;6.13;1.42;;;15.30;99.90;;;;;;5075545;28;20040;-65
2022/07/14 01:24:29;;;;;;;10.40;1.45;;;15.30;99.90;;;;;;5075326;28;20428;-65
2022/07/14 01:26:56;;;;;;;5.15;1.23;;;15.30;99.90;;;;;;5075192;28;20040;-65
2022/07/14 01:29:22;;;;;;;5.75;1.17;;;15.30;99.90;;;;;;5075073;28;20157;-65
2022/07/14 01:31:48;;;;;;;4.10;1.30;;;15.30;99.90;;;;;;5075052;28;20052;-65
2022/07/14 01:34:14;;;;;;;5.07;1.50;;;15.30;99.90;;;;;;5075114;28;20045;-65
2022/07/14 01:36:39;;;;;;;6.45;1.60;;;15.20;99.90;;;;;;5074687;28;20048;-65
2022/07/14 01:39:06;;;;;;;7.28;1.40;;;15.20;99.90;;;;;;5074901;28;20528;-65
2022/07/14 01:41:33;;;;;;;9.65;1.33;;;15.30;99.90;;;;;;5074741;28;20040;-65
2022/07/14 01:43:59;;;;;;;6.47;1.40;;;15.10;99.90;;;;;;5074773;28;20044;-65
2022/07/14 01:46:25;;;;;;;7.35;1.23;;;15.10;99.90;;;;;;5073723;28;20119;-65
2022/07/14 01:48:51;;;;;;;8.43;1.50;;;15.00;99.90;;;;;;5074591;28;20128;-65
2022/07/14 01:51:17;;;;;;;5.13;1.20;;;15.00;99.90;;;;;;5074733;28;20161;-65
2022/07/14 01:53:42;;;;;;;5.25;1.13;;;15.10;99.90;;;;;;5074727;28;20051;-65
2022/07/14 01:56:09;;;;;;;4.97;1.30;;;15.00;99.90;;;;;;5074214;28;20063;-65
2022/07/14 01:58:35;;;;;;;4.93;1.23;;;15.00;99.90;;;;;;5074377;28;20377;-65
2022/07/14 02:03:45;;;;;;;6.85;1.20;;;14.70;99.90;;;;;;5073509;28;20055;-65
2022/07/14 02:06:11;;;;;;;4.70;1.00;;;14.70;99.90;;;;;;5074028;28;20126;-66
2022/07/14 02:08:37;;;;;;;4.43;1.30;;;14.60;99.90;;;;;;5074336;28;20041;-65
2022/07/14 02:13:47;;;;;;;7.82;1.30;;;14.60;99.90;;;;;;5074067;28;20435;-65
2022/07/14 02:16:13;;;;;;;8.77;1.52;;;14.50;99.90;;;;;;5074220;28;20044;-65
2022/07/14 02:18:38;;;;;;;6.05;1.52;;;14.50;99.90;;;;;;5074273;28;20500;-65
2022/07/14 02:21:04;;;;;;;5.00;1.20;;;14.40;99.90;;;;;;5074007;28;20097;-65
2022/07/14 02:23:30;;;;;;;6.03;1.08;;;14.40;99.90;;;;;;5074111;28;20492;-65
2022/07/14 02:25:56;;;;;;;5.07;1.38;;;14.40;99.90;;;;;;5073857;28;20052;-66
2022/07/14 02:28:22;;;;;;;5.22;1.23;;;14.40;99.90;;;;;;5073802;28;20085;-66
2022/07/14 02:30:48;;;;;;;3.88;1.30;;;14.30;99.90;;;;;;5072790;28;20093;-66
2022/07/14 02:33:14;;;;;;;8.18;1.52;;;14.30;99.90;;;;;;5073981;28;20392;-66
2022/07/14 02:35:40;;;;;;;6.28;1.60;;;14.20;99.90;;;;;;5074165;28;20044;-66
2022/07/14 02:38:05;;;;;;;7.85;1.58;;;14.20;99.90;;;;;;5073207;28;20058;-66
2022/07/14 02:40:32;;;;;;;5.55;1.40;;;14.20;99.90;;;;;;5072510;28;20048;-66
2022/07/14 02:42:58;;;;;;;5.13;1.30;;;14.10;99.90;;;;;;5073568;28;20048;-66
2022/07/14 02:45:24;;;;;;;4.10;1.27;;;14.10;99.90;;;;;;5072568;28;20110;-67
2022/07/14 02:47:50;;;;;;;3.72;1.20;;;14.10;99.90;;;;;;5072508;28;20040;-66
2022/07/14 02:50:16;;;;;;;2.97;1.27;;;14.00;99.90;;;;;;5073608;28;20113;-66
2022/07/14 02:52:41;;;;;;;5.28;1.10;;;14.00;99.90;;;;;;5073659;28;20046;-66
2022/07/14 02:55:08;;;;;;;3.97;1.00;;;14.00;99.90;;;;;;5073612;28;20130;-66
2022/07/14 02:57:33;;;;;;;6.97;1.55;;;13.90;99.90;;;;;;5073040;28;20044;-66
2022/07/14 02:59:59;;;;;;;4.45;1.35;;;13.90;99.90;;;;;;5073942;28;20052;-66
2022/07/14 03:02:25;;;;;;;4.68;1.45;;;13.90;99.90;;;;;;5073573;28;20051;-66
2022/07/14 03:04:51;;;;;;;5.55;1.30;;;13.90;99.90;;;;;;5073508;28;20055;-66
2022/07/14 03:07:17;;;;;;;4.03;1.55;;;13.80;99.90;;;;;;5073021;28;20416;-66
2022/07/14 03:09:43;;;;;;;4.60;1.20;;;13.80;99.90;;;;;;5073408;28;20037;-66
2022/07/14 03:12:09;;;;;;;4.57;1.40;;;13.80;99.90;;;;;;5073171;28;20073;-66
2022/07/14 03:14:35;;;;;;;7.50;1.70;;;13.70;99.90;;;;;;5073407;28;20048;-66
2022/07/14 03:17:00;;;;;;;9.57;1.52;;;13.70;99.90;;;;;;5073418;28;20491;-67
2022/07/14 03:19:26;;;;;;;5.80;1.50;;;13.70;99.90;;;;;;5073228;28;20408;-66
2022/07/14 03:21:53;;;;;;;3.53;1.27;;;13.60;99.90;;;;;;5071916;28;20048;-66
2022/07/14 03:24:20;;;;;;;4.80;1.55;;;13.60;99.90;;;;;;5073117;28;20059;-66
2022/07/14 03:26:46;;;;;;;6.75;1.73;;;13.60;99.90;;;;;;5073052;28;20497;-66
2022/07/14 03:29:12;;;;;;;7.65;1.98;;;13.60;99.90;;;;;;5073227;28;20047;-67
2022/07/14 03:31:38;;;;;;;4.75;1.60;;;13.60;99.90;;;;;;5072124;28;20377;-67
2022/07/14 03:34:04;;;;;;;7.15;2.13;;;13.60;99.90;;;;;;5073122;28;20082;-66
2022/07/14 03:36:29;;;;;;;7.20;1.85;;;13.60;99.90;;;;;;5072716;28;20048;-67
2022/07/14 03:38:55;;;;;;;5.60;1.63;;;13.60;99.90;;;;;;5072892;28;20091;-66
2022/07/14 03:41:21;;;;;;;3.75;1.42;;;13.60;99.90;;;;;;5072967;28;20163;-67
2022/07/14 03:43:46;;;;;;;6.18;1.50;;;13.60;99.90;;;;;;5072933;28;20041;-66
2022/07/14 03:46:12;;;;;;;6.10;1.75;;;13.60;99.90;;;;;;5072519;28;20048;-66
2022/07/14 03:48:38;;;;;;;5.90;1.35;;;13.60;99.90;;;;;;5073172;28;20045;-66
2022/07/14 03:51:05;;;;;;;4.85;1.83;;;13.50;99.90;;;;;;5073045;28;20052;-66
2022/07/14 03:53:31;;;;;;;7.65;1.88;;;13.50;99.90;;;;;;5071881;28;20059;-66
2022/07/14 03:55:59;;;;;;;7.18;1.75;;;13.50;99.90;;;;;;5072614;28;20037;-66
2022/07/14 03:58:25;;;;;;;8.05;1.63;;;13.50;99.90;;;;;;5073180;28;20049;-66
2022/07/14 04:00:51;;;;;;;4.55;1.77;;;13.50;99.90;;;;;;5072954;28;20044;-66
2022/07/14 04:03:17;;;;;;;3.03;1.50;;;13.50;99.90;;;;;;5072923;28;20133;-66
2022/07/14 04:05:44;;;;;;;6.90;1.95;;;13.50;99.90;;;;;;5072007;28;20505;-66
2022/07/14 04:08:10;;;;;;;5.82;1.75;;;13.40;99.90;;;;;;5072348;28;20052;-66
2022/07/14 04:10:36;;;;;;;5.57;1.83;;;13.40;99.90;;;;;;5072656;28;20052;-66
2022/07/14 04:13:02;;;;;;;5.53;1.77;;;13.40;99.90;;;;;;5071840;28;20051;-66
2022/07/14 04:15:29;;;;;;;6.75;1.65;;;13.40;99.90;;;;;;5072806;28;20040;-66
2022/07/14 04:17:55;;;;;;;6.72;2.17;;;13.40;99.90;;;;;;5072665;28;20079;-67
2022/07/14 04:20:21;;;;;;;5.88;2.05;;;13.40;99.90;;;;;;5072885;28;20049;-66
2022/07/14 04:22:48;;;;;;;5.57;1.88;;;13.40;99.90;;;;;;5072504;28;20489;-66
2022/07/14 04:25:14;;;;;;;8.07;1.85;;;13.40;99.90;;;;;;5072760;28;20048;-66
2022/07/14 04:27:41;;;;;;;4.78;1.60;;;13.40;99.90;;;;;;5072755;28;20166;-67
2022/07/14 04:30:08;;;;;;;5.68;2.03;;;13.40;99.90;;;;;;5072626;28;20132;-66
2022/07/14 04:32:34;;;;;;;4.00;1.85;;;13.50;99.90;;;;;;5071993;28;20374;-66
2022/07/14 04:34:59;;;;;;;6.70;2.00;;;13.40;99.90;;;;;;5076087;28;20047;-66
2022/07/14 04:37:26;;;;;;;6.15;1.80;;;13.50;99.90;;;;;;5075500;28;20048;-66
2022/07/14 04:39:54;;;;;;;5.47;1.80;;;13.50;99.90;;;;;;5076167;28;20076;-66
2022/07/14 04:42:21;;;;;;;6.40;1.80;;;13.50;99.90;;;;;;5076118;28;20057;-66
2022/07/14 04:44:47;;;;;;;9.07;1.90;;;13.50;99.90;;;;;;5076235;28;20049;-67
2022/07/14 04:47:12;;;;;;;5.95;1.63;;;13.50;99.90;;;;;;5075881;28;20047;-67
2022/07/14 04:52:22;;;;;;;5.63;1.80;;;13.60;99.90;;;;;;5075744;28;20093;-67
2022/07/14 04:54:48;;;;;;;8.27;1.48;;;13.60;99.90;;;;;;5075857;28;20131;-66
2022/07/14 04:57:14;;;;;;;4.65;1.60;;;13.60;99.90;;;;;;5075662;28;20102;-67
2022/07/14 04:59:40;;;;;;;3.42;1.60;;;13.70;99.90;;;;;;5075794;28;20500;-67
2022/07/14 05:02:05;;;;;;;8.50;1.95;;;13.70;99.90;;;;;;5075710;28;20048;-67
2022/07/14 05:04:32;;;;;;;4.25;1.75;;;13.70;99.90;;;;;;5075525;28;20517;-66
2022/07/14 05:06:57;;;;;;;5.20;1.55;;;13.70;99.90;;;;;;5075074;28;20076;-66
2022/07/14 05:09:31;;;;;;;3.17;1.63;;;13.80;99.90;;;;;;5075584;28;20507;-66
2022/07/14 05:11:56;;;;;;;4.55;1.63;;;13.80;99.90;;;;;;5075514;28;20566;-67
2022/07/14 05:14:25;;;;;;;8.25;1.80;;;13.80;99.90;;;;;;5075424;28;20143;-66
2022/07/14 05:16:50;;;;;;;4.85;2.00;;;13.90;99.90;;;;;;5074529;28;20648;-66
2022/07/14 05:19:17;;;;;;;5.18;1.80;;;13.90;99.90;;;;;;5075409;28;20127;-67
2022/07/14 05:21:44;;;;;;;4.07;1.40;;;13.90;99.90;;;;;;5075465;28;20048;-67
2022/07/14 05:24:10;;;;;;;5.30;1.85;;;14.00;99.90;;;;;;5075588;28;20048;-67
2022/07/14 05:26:36;;;;;;;6.38;1.55;;;14.00;99.90;;;;;;5075608;28;20050;-67
2022/07/14 05:29:02;;;;;;;9.60;2.28;;;14.10;99.90;;;;;;5075058;28;20484;-67
2022/07/14 05:31:28;;;;;;;8.35;1.80;;;14.20;99.90;;;;;;5075088;28;20373;-67
2022/07/14 05:33:55;;;;;;;7.80;1.80;;;14.20;99.90;;;;;;5074952;28;20143;-66
2022/07/14 05:36:22;;;;;;;5.10;1.55;;;14.20;99.90;;;;;;5074672;28;20048;-67
2022/07/14 05:38:48;;;;;;;3.40;1.00;;;14.40;99.90;;;;;;5074683;28;20558;-67
2022/07/14 05:41:14;;;;;;;6.68;1.60;;;14.40;99.90;;;;;;5074870;28;20052;-67
2022/07/14 05:43:41;;;;;;;4.22;1.20;;;14.40;99.90;;;;;;5074520;28;20519;-67
2022/07/14 05:46:08;;;;;;;5.28;1.25;;;14.50;99.90;;;;;;5074912;28;20044;-67
2022/07/14 05:48:35;;;;;;;4.10;1.80;;;14.50;99.90;;;;;;5074569;28;20044;-67
2022/07/14 05:51:11;;;;;;;4.88;1.30;;;14.60;99.90;;;;;;5074912;28;20099;-67
2022/07/14 05:53:38;;;;;;;4.57;1.20;;;14.70;99.90;;;;;;5074657;28;20499;-67
2022/07/14 05:56:05;;;;;;;2.75;1.20;;;14.80;99.90;;;;;;5074433;28;20076;-67
2022/07/14 05:58:32;;;;;;;6.60;0.90;;;14.90;99.90;;;;;;5073285;28;20097;-67
2022/07/14 06:00:58;;;;;;;3.53;0.90;;;14.90;99.90;;;;;;5074317;28;20041;-67
2022/07/14 06:03:24;;;;;;;5.20;1.10;;;14.90;99.90;;;;;;5074728;28;20075;-67
2022/07/14 06:05:49;;;;;;;5.63;1.00;;;15.00;99.90;;;;;;5073604;28;20059;-67
2022/07/14 06:08:15;;;;;;;3.50;0.73;;;15.10;99.90;;;;;;5072791;28;20124;-67
2022/07/14 06:10:41;;;;;;;4.38;0.70;;;15.10;99.90;;;;;;5074409;28;20048;-67
2022/07/14 06:13:07;;;;;;;3.25;0.70;;;15.20;99.90;;;;;;5074090;28;20139;-67
2022/07/14 06:15:32;;;;;;;3.40;0.65;;;15.30;99.90;;;;;;5074082;28;20044;-67
2022/07/14 06:17:58;;;;;;;3.60;0.60;;;15.30;99.90;;;;;;5074176;28;20048;-67
2022/07/14 06:20:24;;;;;;;4.03;0.90;;;15.40;99.90;;;;;;5074328;28;20040;-67
2022/07/14 06:22:49;;;;;;;3.97;0.60;;;15.40;99.90;;;;;;5074152;28;20486;-66
2022/07/14 06:25:16;;;;;;;3.03;0.50;;;15.50;99.90;;;;;;5073972;28;20454;-67
2022/07/14 06:27:42;;;;;;;2.47;0.43;;;15.50;99.90;;;;;;5073022;28;20052;-67
2022/07/14 06:30:08;;;;;;;3.30;0.50;;;15.50;99.90;;;;;;5072325;28;20063;-67
2022/07/14 06:32:36;;;;;;;3.45;0.60;;;15.50;99.90;;;;;;5072513;28;20060;-67
2022/07/14 06:35:03;;;;;;;2.92;0.35;;;15.60;99.90;;;;;;5073920;28;20113;-67
2022/07/14 06:37:29;;;;;;;1.67;0.40;;;15.60;99.90;;;;;;5073636;28;20059;-67
2022/07/14 06:39:55;;;;;;;5.47;0.50;;;15.70;99.90;;;;;;5073860;28;20048;-67
2022/07/14 06:42:20;;;;;;;0.93;0.40;;;15.70;99.90;;;;;;5072578;28;20123;-67
2022/07/14 06:44:46;;;;;;;4.78;0.40;;;15.80;99.90;;;;;;5073509;28;20083;-67
2022/07/14 06:47:12;;;;;;;1.10;0.30;;;15.80;99.90;;;;;;5073743;28;20076;-67
2022/07/14 06:49:37;;;;;;;1.15;0.40;;;15.90;99.90;;;;;;5073729;28;20045;-66
2022/07/14 06:52:05;;;;;;;3.30;0.40;;;16.00;99.90;;;;;;5073754;28;20053;-67
2022/07/14 06:54:31;;;;;;;2.22;0.40;;;16.00;99.90;;;;;;5072791;28;20052;-67
2022/07/14 06:56:56;;;;;;;2.10;0.45;;;16.10;99.90;;;;;;5073110;28;20049;-67
2022/07/14 06:59:22;;;;;;;3.38;0.40;;;16.20;99.90;;;;;;5073468;28;20087;-67
2022/07/14 07:01:48;;;;;;;1.80;0.30;;;16.20;99.90;;;;;;5073866;28;20043;-67
2022/07/14 07:04:13;;;;;;;2.83;0.50;;;16.20;99.90;;;;;;5073917;28;20056;-67
2022/07/14 07:06:45;;;;;;;2.60;0.45;;;16.30;99.90;;;;;;5073055;28;20407;-67
2022/07/14 07:09:12;;;;;;;1.45;0.40;;;16.30;99.90;;;;;;5073707;28;20044;-67
2022/07/14 07:11:38;;;;;;;1.50;0.30;;;16.30;99.90;;;;;;5073688;28;20084;-67
2022/07/14 07:14:04;;;;;;;4.68;0.40;;;16.40;99.90;;;;;;5073282;28;20063;-66
2022/07/14 07:16:30;;;;;;;2.03;0.47;;;16.40;99.90;;;;;;5073655;28;20044;-66
2022/07/14 07:18:56;;;;;;;3.17;0.38;;;16.40;99.90;;;;;;5073490;28;20051;-67
2022/07/14 07:21:25;;;;;;;2.80;0.47;;;16.40;99.90;;;;;;5072227;28;20047;-67
2022/07/14 07:23:51;;;;;;;1.55;0.40;;;16.50;99.90;;;;;;5073289;28;20044;-66
2022/07/14 07:26:20;;;;;;;1.70;0.30;;;16.50;99.90;;;;;;5073230;28;20047;-67
2022/07/14 07:28:46;;;;;;;1.33;0.30;;;16.60;99.90;;;;;;5072510;28;20128;-67
2022/07/14 07:31:13;;;;;;;4.32;0.40;;;16.70;99.90;;;;;;5072734;28;20115;-67
2022/07/14 07:33:39;;;;;;;4.97;0.47;;;16.80;99.90;;;;;;5072840;28;20488;-67
2022/07/14 07:36:05;;;;;;;2.15;0.40;;;16.80;99.90;;;;;;5071596;28;20040;-67
2022/07/14 07:38:31;;;;;;;1.80;0.30;;;16.80;99.90;;;;;;5072016;28;20381;-67
2022/07/14 07:41:00;;;;;;;0.82;0.20;;;16.80;99.90;;;;;;5072591;28;20048;-67
2022/07/14 07:43:26;;;;;;;2.20;0.30;;;16.80;99.90;;;;;;5072871;28;20045;-67
2022/07/14 07:45:53;;;;;;;3.55;0.63;;;16.80;99.90;;;;;;5072652;28;20075;-67
2022/07/14 07:48:19;;;;;;;3.42;0.52;;;16.80;99.90;;;;;;5072663;28;20052;-67
2022/07/14 07:50:45;;;;;;;2.05;0.38;;;16.90;99.90;;;;;;5072631;28;20045;-68
2022/07/14 07:53:11;;;;;;;1.00;0.30;;;17.00;99.90;;;;;;5072403;28;20044;-67
2022/07/14 07:55:38;;;;;;;3.17;0.22;;;17.20;99.90;;;;;;5072339;28;20503;-67
2022/07/14 07:58:04;;;;;;;1.05;0.20;;;17.30;99.90;;;;;;5072213;28;20408;-67
2022/07/14 08:00:31;;;;;;;1.25;0.20;;;17.30;99.90;;;;;;5072627;28;20045;-67
2022/07/14 08:02:57;;;;;;;2.03;0.20;;;17.20;99.90;;;;;;5072500;28;20049;-67
2022/07/14 08:05:24;;;;;;;2.60;0.30;;;17.30;99.90;;;;;;5072438;28;20042;-67
2022/07/14 08:07:50;;;;;;;0.63;0.30;;;17.30;99.90;;;;;;5074248;28;20032;-67
2022/07/14 08:10:16;;;;;;;2.45;0.30;;;17.30;99.90;;;;;;5076020;28;20091;-67
2022/07/14 08:12:43;;;;;;;2.20;0.30;;;17.30;99.90;;;;;;5076041;28;20546;-67
2022/07/14 08:15:09;;;;;;;1.00;0.30;;;17.30;99.90;;;;;;5076156;28;20041;-67
2022/07/14 08:17:36;;;;;;;0.57;0.20;;;17.40;99.90;;;;;;5076211;28;20044;-67
2022/07/14 08:20:02;;;;;;;3.15;0.40;;;17.40;99.90;;;;;;5074703;28;20381;-67
2022/07/14 08:22:29;;;;;;;0.60;0.20;;;17.50;99.90;;;;;;5075764;28;20106;-67
2022/07/14 08:24:56;;;;;;;1.27;0.25;;;17.60;99.90;;;;;;5075225;28;20091;-67
2022/07/14 08:27:22;;;;;;;0.73;0.10;;;17.70;99.90;;;;;;5074307;28;20455;-67
2022/07/14 08:29:49;;;;;;;1.85;0.30;;;17.80;99.90;;;;;;5075731;28;20458;-67
2022/07/14 08:32:14;;;;;;;1.45;0.25;;;17.80;99.90;;;;;;5075751;28;20549;-68
2022/07/14 08:34:40;;;;;;;1.92;0.30;;;17.90;99.90;;;;;;5075788;28;20045;-67
2022/07/14 08:37:06;;;;;;;2.20;0.28;;;18.00;99.90;;;;;;5075060;28;20093;-67
2022/07/14 08:39:33;;;;;;;4.50;0.20;;;18.10;99.90;;;;;;5075444;28;20119;-67
2022/07/14 08:42:03;;;;;;;2.10;0.20;;;18.10;99.90;;;;;;5075778;28;20044;-67
2022/07/14 08:44:29;;;;;;;2.90;0.50;;;18.10;99.90;;;;;;5075660;28;20053;-67
2022/07/14 08:46:55;;;;;;;3.17;0.30;;;18.10;99.90;;;;;;5075708;28;20040;-68
2022/07/14 08:49:22;;;;;;;1.20;0.20;;;18.20;99.90;;;;;;5075556;28;20047;-67
2022/07/14 08:51:50;;;;;;;1.25;0.28;;;18.10;99.90;;;;;;5074501;28;20056;-67
2022/07/14 08:54:16;;;;;;;0.30;0.20;;;18.10;99.90;;;;;;5072966;28;20492;-67
2022/07/14 08:56:43;;;;;;;2.50;0.38;;;18.20;99.90;;;;;;5075373;28;20412;-67
2022/07/14 08:59:09;;;;;;;1.20;0.20;;;18.30;99.90;;;;;;5075209;28;20049;-67
2022/07/14 09:01:36;;;;;;;1.25;0.20;;;18.30;99.90;;;;;;5075343;28;20040;-67
2022/07/14 09:04:02;;;;;;;2.85;0.50;;;18.40;99.90;;;;;;5075239;28;20047;-67
2022/07/14 09:06:50;;;;;;;1.85;0.30;;;18.40;99.90;;;;;;5050564;28;20044;-67
2022/07/14 09:09:22;;;;;;;0.63;0.20;;;18.50;99.90;;;;;;5075258;28;20119;-67
2022/07/14 09:12:09;;;;;;;0.40;0.22;;;18.50;99.90;;;;;;5075553;28;20197;-67
2022/07/14 09:17:25;;;;;;;0.88;0.20;;;18.60;99.90;;;;;;5067971;28;20141;-67
2022/07/14 09:20:10;;;;;;;0.55;0.25;;;18.60;99.90;;;;;;5069398;28;20070;-68
2022/07/14 09:22:38;;;;;;;1.23;0.25;;;18.60;99.90;;;;;;5066789;28;20056;-69
2022/07/14 09:25:17;;;;;;;1.35;0.30;;;18.60;99.90;;;;;;5069710;28;20078;-68
2022/07/14 09:27:48;;;;;;;2.58;0.25;;;18.60;99.90;;;;;;5066752;28;20131;-67
2022/07/14 09:30:15;;;;;;;2.35;0.30;;;18.60;99.90;;;;;;5069554;28;20052;-67
2022/07/14 09:32:41;;;;;;;4.20;0.30;;;18.70;99.90;;;;;;5068702;28;20047;-67
2022/07/14 09:35:07;;;;;;;0.47;0.20;;;18.80;99.90;;;;;;5067158;28;20052;-67
2022/07/14 09:37:32;;;;;;;3.20;0.20;;;18.90;99.90;;;;;;5067091;28;20538;-68
2022/07/14 09:39:59;;;;;;;1.02;0.30;;;18.90;99.90;;;;;;5066724;28;20072;-67
2022/07/14 09:42:50;;;;;;;1.75;0.25;;;18.90;99.90;;;;;;5069246;28;20040;-67
2022/07/14 09:45:17;;;;;;;0.52;0.20;;;18.90;99.90;;;;;;5069154;28;20049;-67
2022/07/14 09:48:07;;;;;;;1.20;0.30;;;18.90;99.90;;;;;;5067367;28;20393;-68
2022/07/14 09:50:36;;;;;;;1.00;0.32;;;18.90;99.90;;;;;;5067887;28;20052;-67
2022/07/14 09:53:23;;;;;;;1.77;0.20;;;18.90;99.90;;;;;;5067275;28;20094;-67
2022/07/14 09:55:52;;;;;;;1.27;0.20;;;18.90;99.90;;;;;;5067639;28;20072;-68
2022/07/14 09:58:22;;;;;;;1.55;0.25;;;18.90;99.90;;;;;;5067450;28;20080;-67
2022/07/14 10:01:07;;;;;;;6.43;0.40;;;19.00;99.90;;;;;;5068039;28;20059;-67
2022/07/14 10:03:34;;;;;;;3.47;0.30;;;19.10;99.90;;;;;;5068251;28;20067;-67
2022/07/14 10:06:02;;;;;;;1.17;0.30;;;19.20;99.90;;;;;;5066641;28;20094;-68
2022/07/14 10:08:35;;;;;;;0.60;0.20;;;19.10;99.90;;;;;;5067140;28;20094;-67
2022/07/14 10:11:05;;;;;;;2.65;0.40;;;19.20;99.90;;;;;;5067183;28;20036;-69
2022/07/14 10:13:31;;;;;;;1.95;0.30;;;19.20;99.90;;;;;;5067731;28;20131;-69
2022/07/14 10:15:58;;;;;;;1.27;0.20;;;19.10;99.90;;;;;;5066882;28;20472;-67
2022/07/14 10:18:26;;;;;;;1.63;0.13;;;19.10;99.90;;;;;;5064915;28;20048;-67
2022/07/14 10:20:53;;;;;;;1.42;0.25;;;19.10;99.90;;;;;;5067813;28;20044;-69
2022/07/14 10:23:20;;;;;;;1.70;0.35;;;19.20;99.90;;;;;;5068645;28;20116;-68
2022/07/14 10:25:52;;;;;;;2.40;0.47;;;19.20;99.90;;;;;;5064158;28;20542;-67
2022/07/14 10:28:19;;;;;;;1.52;0.38;;;19.20;99.90;;;;;;5067298;28;20056;-68
2022/07/14 10:31:09;;;;;;;3.03;0.25;;;19.30;99.90;;;;;;5068741;28;20056;-67
2022/07/14 10:33:53;;;;;;;2.60;0.30;;;19.40;99.90;;;;;;5070235;28;20036;-67
2022/07/14 10:36:39;;;;;;;1.55;0.30;;;19.40;99.90;;;;;;5071300;28;20087;-67
2022/07/14 10:39:12;;;;;;;1.13;0.20;;;19.30;99.90;;;;;;5071960;28;20050;-66
2022/07/14 10:41:58;;;;;;;0.93;0.20;;;19.50;99.90;;;;;;5070112;28;20170;-67
2022/07/14 10:44:28;;;;;;;3.38;0.30;;;19.40;99.90;;;;;;5071992;28;20041;-67
2022/07/14 10:47:11;;;;;;;2.50;0.40;;;19.60;99.90;;;;;;5070715;28;20245;-67
2022/07/14 10:49:55;;;;;;;;;;;19.50;99.90;;;;;;5071198;28;20044;-67
2022/07/14 10:52:25;;;;;;;1.48;0.30;;;19.70;99.90;;;;;;5071408;28;20391;-67
2022/07/14 10:55:11;;;;;;;0.80;0.20;;;19.80;99.90;;;;;;5073206;28;20044;-66
2022/07/14 10:57:36;;;;;;;1.52;0.30;;;19.60;99.90;;;;;;5070160;28;20052;-67
2022/07/14 11:00:04;;;;;;;3.17;0.30;;;19.50;99.90;;;;;;5073253;28;20045;-67
2022/07/14 11:02:32;;;;;;;3.70;0.38;;;19.40;99.90;;;;;;5073169;28;20110;-67
2022/07/14 11:05:04;;;;;;;1.50;0.20;;;19.40;99.90;;;;;;5072913;28;20072;-67
2022/07/14 11:07:46;;;;;;;1.00;0.55;;;19.40;99.90;;;;;;5072380;28;20063;-68
2022/07/14 11:10:11;;;;;;;1.10;0.20;;;19.30;99.90;;;;;;5073052;28;20123;-67
2022/07/14 11:12:59;;;;;;;1.50;0.22;;;19.30;99.90;;;;;;5073130;28;20123;-67
2022/07/14 11:15:41;;;;;;;2.97;0.40;;;19.30;99.90;;;;;;5071420;28;20044;-66
2022/07/14 11:18:24;;;;;;;1.90;0.30;;;19.20;99.90;;;;;;5071370;28;20032;-67
2022/07/14 11:21:18;;;;;;;3.20;0.30;;;19.20;99.90;;;;;;5072246;28;20500;-67
2022/07/14 11:23:46;;;;;;;1.88;0.20;;;19.10;99.90;;;;;;5071525;28;20102;-66
2022/07/14 11:26:41;;;;;;;0.98;0.30;;;19.10;99.90;;;;;;5072839;28;20044;-69
2022/07/14 11:29:08;;;;;;;4.15;0.30;;;19.10;99.90;;;;;;5073132;28;20055;-66
2022/07/14 11:31:51;;;;;;;1.52;0.30;;;19.00;99.90;;;;;;5073058;28;20040;-66
2022/07/14 11:37:06;;;;;;;1.35;0.30;;;19.00;99.90;;;;;;5072762;28;19924;-66
2022/07/14 11:39:37;;;;;;;1.08;0.30;;;19.10;99.90;;;;;;5073091;28;20049;-65
2022/07/14 11:42:07;;;;;;;1.17;0.30;;;19.10;99.90;;;;;;5074644;28;20048;-70
2022/07/14 11:44:35;;;;;;;0.95;0.22;;;19.10;99.90;;;;;;5043450;28;20511;-68
2022/07/14 11:47:05;;;;;;;1.15;0.20;;;19.20;99.90;;;;;;5077059;28;20101;-69
2022/07/14 11:49:32;;;;;;;2.55;0.30;;;19.20;99.90;;;;;;5076985;28;20441;-66
2022/07/14 11:52:01;;;;;;;4.22;0.40;;;19.20;99.90;;;;;;5077216;28;20048;-65
2022/07/14 11:54:27;;;;;;;1.98;0.30;;;19.30;99.90;;;;;;5076951;28;20063;-65
2022/07/14 11:57:06;;;;;;;0.82;0.20;;;19.40;99.90;;;;;;5075886;28;20048;-66
2022/07/14 11:59:33;;;;;;;2.72;0.30;;;19.40;99.90;;;;;;5076912;28;20427;-65
2022/07/14 12:02:07;;;;;;;3.30;0.30;;;19.60;99.90;;;;;;5076663;28;20040;-65
2022/07/14 12:04:34;;;;;;;2.92;0.38;;;19.60;99.90;;;;;;5076952;28;20044;-66
2022/07/14 12:07:00;;;;;;;4.05;0.95;;;19.70;99.90;;;;;;5076751;28;20059;-65
2022/07/14 12:09:35;;;;;;;0.45;0.30;;;19.80;99.90;;;;;;5076915;28;20389;-65
2022/07/14 12:12:01;;;;;;;1.67;0.25;;;19.90;99.90;;;;;;5076683;28;20090;-64
2022/07/14 12:14:27;;;;;;;1.33;0.30;;;20.80;99.90;;;;;;5076493;28;20114;-65
2022/07/14 12:16:53;;;;;;;1.58;0.40;;;19.90;99.90;;;;;;5076942;28;20044;-65
2022/07/14 12:19:30;;;;;;;1.63;0.30;;;20.00;99.90;;;;;;5076573;28;20044;-65
2022/07/14 12:22:00;;;;;;;0.68;0.20;;;20.00;99.90;;;;;;5076697;28;20044;-65
2022/07/14 12:24:26;;;;;;;1.05;0.30;;;20.10;99.90;;;;;;5076444;28;20443;-65
2022/07/14 12:26:55;;;;;;;2.10;0.30;;;20.20;99.90;;;;;;5076235;28;20040;-65
2022/07/14 12:29:22;;;;;;;1.00;0.28;;;20.20;99.90;;;;;;5076549;28;20037;-65
2022/07/14 12:31:47;;;;;;;1.13;0.30;;;20.20;99.90;;;;;;5075264;28;20048;-65
2022/07/14 12:34:15;;;;;;;1.52;0.20;;;20.10;99.90;;;;;;5076337;28;20040;-66
2022/07/14 12:36:41;;;;;;;1.17;0.30;;;20.10;99.90;;;;;;5075844;28;20135;-66
2022/07/14 12:39:10;;;;;;;1.00;0.30;;;20.10;99.90;;;;;;5074946;28;20045;-66
2022/07/14 12:41:38;;;;;;;3.05;0.30;;;20.10;99.90;;;;;;5076001;28;20070;-66
2022/07/14 12:44:10;;;;;;;1.48;0.20;;;20.00;99.90;;;;;;5076492;28;20044;-66
2022/07/14 12:46:36;;;;;;;2.60;0.30;;;20.00;99.90;;;;;;5076222;28;20070;-65
2022/07/14 12:49:07;;;;;;;1.55;0.20;;;19.90;99.90;;;;;;5076246;28;20040;-66
2022/07/14 12:51:43;;;;;;;2.40;0.30;;;19.80;99.90;;;;;;5075938;28;20488;-66
2022/07/14 12:54:15;;;;;;;1.58;0.22;;;19.80;99.90;;;;;;5074892;28;20052;-65
2022/07/14 12:56:44;;;;;;;1.95;0.22;;;19.70;99.90;;;;;;5075922;28;20056;-66
2022/07/14 12:59:25;;;;;;;1.90;0.30;;;19.60;99.90;;;;;;5075791;28;20106;-65
2022/07/14 13:01:57;;;;;;;2.55;0.20;;;19.50;99.90;;;;;;5075836;28;20044;-65
2022/07/14 13:04:33;;;;;;;2.80;0.50;;;19.40;99.90;;;;;;5075500;28;20435;-66
2022/07/14 13:07:13;;;;;;;2.40;0.30;;;19.40;99.90;;;;;;5076031;28;20469;-66